sensor_id;sensor_type;location;lat;lon;timestamp;pressure;altitude;pressure_sealevel;temperature;humidity
38716;BME280;24833;49.324;8.694;2023-03-16T00:00:17;100270.13;;;2.13;89.64
38716;BME280;24833;49.324;8.694;2023-03-16T00:02:44;100263.31;;;2.10;89.79
38716;BME280;24833;49.324;8.694;2023-03-16T00:05:13;100261.91;;;2.06;89.62
38716;BME280;24833;49.324;8.694;2023-03-16T00:07:41;100267.31;;;2.05;89.87
38716;BME280;24833;49.324;8.694;2023-03-16T00:10:11;100263.97;;;2.03;90.06
38716;BME280;24833;49.324;8.694;2023-03-16T00:12:38;100268.53;;;2.01;89.99
38716;BME280;24833;49.324;8.694;2023-03-16T00:15:10;100269.47;;;2.00;88.69
38716;BME280;24833;49.324;8.694;2023-03-16T00:17:37;100274.88;;;1.98;89.47
38716;BME280;24833;49.324;8.694;2023-03-16T00:20:05;100267.09;;;1.97;90.17
38716;BME280;24833;49.324;8.694;2023-03-16T00:22:33;100269.03;;;1.95;89.61
38716;BME280;24833;49.324;8.694;2023-03-16T00:25:00;100268.31;;;1.92;89.98
38716;BME280;24833;49.324;8.694;2023-03-16T00:27:27;100280.09;;;1.88;89.99
38716;BME280;24833;49.324;8.694;2023-03-16T00:29:54;100277.44;;;1.88;89.79
38716;BME280;24833;49.324;8.694;2023-03-16T00:32:26;100269.78;;;1.85;89.70
38716;BME280;24833;49.324;8.694;2023-03-16T00:34:54;100269.78;;;1.85;89.77
38716;BME280;24833;49.324;8.694;2023-03-16T00:37:22;100275.19;;;1.84;89.96
38716;BME280;24833;49.324;8.694;2023-03-16T00:39:51;100271.72;;;1.83;89.69
38716;BME280;24833;49.324;8.694;2023-03-16T00:42:25;100265.63;;;1.83;90.04
38716;BME280;24833;49.324;8.694;2023-03-16T00:44:53;100280.59;;;1.82;89.12
38716;BME280;24833;49.324;8.694;2023-03-16T00:47:30;100262.28;;;1.81;89.68
38716;BME280;24833;49.324;8.694;2023-03-16T00:50:00;100268.50;;;1.80;90.05
38716;BME280;24833;49.324;8.694;2023-03-16T00:52:28;100266.69;;;1.80;90.07
38716;BME280;24833;49.324;8.694;2023-03-16T00:54:57;100261.44;;;1.80;90.41
38716;BME280;24833;49.324;8.694;2023-03-16T00:57:26;100261.44;;;1.80;90.89
38716;BME280;24833;49.324;8.694;2023-03-16T00:59:54;100245.78;;;1.79;90.43
38716;BME280;24833;49.324;8.694;2023-03-16T01:02:22;100243.97;;;1.79;90.30
38716;BME280;24833;49.324;8.694;2023-03-16T01:04:51;100252.84;;;1.78;90.16
38716;BME280;24833;49.324;8.694;2023-03-16T01:07:20;100250.22;;;1.78;90.19
38716;BME280;24833;49.324;8.694;2023-03-16T01:09:47;100248.41;;;1.79;90.81
38716;BME280;24833;49.324;8.694;2023-03-16T01:12:18;100243.13;;;1.79;90.98
38716;BME280;24833;49.324;8.694;2023-03-16T01:14:45;100246.59;;;1.79;91.02
38716;BME280;24833;49.324;8.694;2023-03-16T01:17:14;100244.94;;;1.78;90.96
38716;BME280;24833;49.324;8.694;2023-03-16T01:19:42;100244.09;;;1.78;90.73
38716;BME280;24833;49.324;8.694;2023-03-16T01:22:10;100236.34;;;1.76;91.09
38716;BME280;24833;49.324;8.694;2023-03-16T01:24:38;100237.03;;;1.78;90.70
38716;BME280;24833;49.324;8.694;2023-03-16T01:27:07;100230.13;;;1.77;90.73
38716;BME280;24833;49.324;8.694;2023-03-16T01:29:35;100229.16;;;1.78;90.68
38716;BME280;24833;49.324;8.694;2023-03-16T01:32:03;100224.84;;;1.77;90.10
38716;BME280;24833;49.324;8.694;2023-03-16T01:34:32;100226.66;;;1.77;90.50
38716;BME280;24833;49.324;8.694;2023-03-16T01:37:00;100218.88;;;1.75;91.12
38716;BME280;24833;49.324;8.694;2023-03-16T01:39:39;100224.16;;;1.75;90.35
38716;BME280;24833;49.324;8.694;2023-03-16T01:42:07;100223.31;;;1.75;90.78
38716;BME280;24833;49.324;8.694;2023-03-16T01:44:56;100225.34;;;1.71;90.50
38716;BME280;24833;49.324;8.694;2023-03-16T01:47:31;100231.59;;;1.70;90.35
38716;BME280;24833;49.324;8.694;2023-03-16T01:50:11;100229.91;;;1.69;90.07
38716;BME280;24833;49.324;8.694;2023-03-16T01:52:40;100223.09;;;1.67;90.30
38716;BME280;24833;49.324;8.694;2023-03-16T01:55:09;100223.22;;;1.65;90.97
38716;BME280;24833;49.324;8.694;2023-03-16T01:57:43;100217.28;;;1.63;90.55
38716;BME280;24833;49.324;8.694;2023-03-16T02:00:18;100224.34;;;1.62;90.18
38716;BME280;24833;49.324;8.694;2023-03-16T02:03:12;100206.97;;;1.60;90.49
38716;BME280;24833;49.324;8.694;2023-03-16T02:08:39;100209.88;;;1.57;91.08
38716;BME280;24833;49.324;8.694;2023-03-16T02:11:09;100203.91;;;1.55;91.27
38716;BME280;24833;49.324;8.694;2023-03-16T02:13:45;100201.38;;;1.53;90.66
38716;BME280;24833;49.324;8.694;2023-03-16T02:16:14;100197.94;;;1.53;91.54
38716;BME280;24833;49.324;8.694;2023-03-16T02:18:46;100188.38;;;1.52;91.45
38716;BME280;24833;49.324;8.694;2023-03-16T02:22:03;100181.44;;;1.51;90.47
38716;BME280;24833;49.324;8.694;2023-03-16T02:24:33;100182.53;;;1.48;91.25
38716;BME280;24833;49.324;8.694;2023-03-16T02:27:07;100185.28;;;1.47;90.91
38716;BME280;24833;49.324;8.694;2023-03-16T02:30:07;100180.28;;;1.44;90.41
38716;BME280;24833;49.324;8.694;2023-03-16T02:32:46;100187.22;;;1.45;90.97
38716;BME280;24833;49.324;8.694;2023-03-16T02:35:14;100182.09;;;1.43;90.18
38716;BME280;24833;49.324;8.694;2023-03-16T02:37:41;100183.88;;;1.43;91.07
38716;BME280;24833;49.324;8.694;2023-03-16T02:40:45;100183.88;;;1.43;90.48
38716;BME280;24833;49.324;8.694;2023-03-16T02:43:23;100171.69;;;1.42;91.02
38716;BME280;24833;49.324;8.694;2023-03-16T02:46:02;100178.84;;;1.40;91.17
38716;BME280;24833;49.324;8.694;2023-03-16T02:51:20;100165.00;;;1.38;91.63
38716;BME280;24833;49.324;8.694;2023-03-16T02:53:47;100164.16;;;1.37;91.63
38716;BME280;24833;49.324;8.694;2023-03-16T02:56:15;100170.25;;;1.38;91.84
38716;BME280;24833;49.324;8.694;2023-03-16T02:58:42;100165.00;;;1.38;91.40
38716;BME280;24833;49.324;8.694;2023-03-16T03:01:13;100158.09;;;1.36;91.51
38716;BME280;24833;49.324;8.694;2023-03-16T03:03:40;100165.84;;;1.38;91.23
38716;BME280;24833;49.324;8.694;2023-03-16T03:06:07;100161.41;;;1.39;91.82
38716;BME280;24833;49.324;8.694;2023-03-16T03:08:36;100169.44;;;1.37;91.22
38716;BME280;24833;49.324;8.694;2023-03-16T03:11:04;100161.53;;;1.37;91.56
38716;BME280;24833;49.324;8.694;2023-03-16T03:13:31;100158.09;;;1.36;91.80
38716;BME280;24833;49.324;8.694;2023-03-16T03:15:58;100161.69;;;1.35;91.42
38716;BME280;24833;49.324;8.694;2023-03-16T03:18:27;100159.03;;;1.35;91.38
38716;BME280;24833;49.324;8.694;2023-03-16T03:20:54;100149.34;;;1.36;91.68
38716;BME280;24833;49.324;8.694;2023-03-16T03:23:21;100144.22;;;1.34;91.59
38716;BME280;24833;49.324;8.694;2023-03-16T03:25:48;100137.28;;;1.33;91.59
38716;BME280;24833;49.324;8.694;2023-03-16T03:28:16;100135.59;;;1.32;91.70
38716;BME280;24833;49.324;8.694;2023-03-16T03:30:44;100150.56;;;1.32;91.55
38716;BME280;24833;49.324;8.694;2023-03-16T03:33:11;100145.44;;;1.30;91.23
38716;BME280;24833;49.324;8.694;2023-03-16T03:35:38;100135.88;;;1.29;91.45
38716;BME280;24833;49.324;8.694;2023-03-16T03:38:07;100136.84;;;1.28;91.60
38716;BME280;24833;49.324;8.694;2023-03-16T03:40:35;100143.06;;;1.27;91.56
38716;BME280;24833;49.324;8.694;2023-03-16T03:43:04;100140.53;;;1.26;91.73
38716;BME280;24833;49.324;8.694;2023-03-16T03:45:33;100137.22;;;1.24;91.14
38716;BME280;24833;49.324;8.694;2023-03-16T03:48:01;100146.31;;;1.20;91.48
38716;BME280;24833;49.324;8.694;2023-03-16T03:50:28;100141.31;;;1.17;91.20
38716;BME280;24833;49.324;8.694;2023-03-16T03:53:16;100153.16;;;1.11;91.46
38716;BME280;24833;49.324;8.694;2023-03-16T03:56:04;100155.31;;;1.06;91.32
38716;BME280;24833;49.324;8.694;2023-03-16T03:58:31;100141.00;;;0.99;91.44
38716;BME280;24833;49.324;8.694;2023-03-16T04:00:58;100134.34;;;0.95;91.43
38716;BME280;24833;49.324;8.694;2023-03-16T04:03:25;100131.13;;;0.91;91.67
38716;BME280;24833;49.324;8.694;2023-03-16T04:05:52;100134.84;;;0.89;91.62
38716;BME280;24833;49.324;8.694;2023-03-16T04:08:19;100128.88;;;0.87;91.70
38716;BME280;24833;49.324;8.694;2023-03-16T04:10:47;100133.56;;;0.83;91.19
38716;BME280;24833;49.324;8.694;2023-03-16T04:13:14;100123.28;;;0.80;91.54
38716;BME280;24833;49.324;8.694;2023-03-16T04:15:41;100127.97;;;0.76;91.29
38716;BME280;24833;49.324;8.694;2023-03-16T04:18:31;100137.88;;;0.73;91.32
38716;BME280;24833;49.324;8.694;2023-03-16T04:21:06;100130.38;;;0.68;91.42
38716;BME280;24833;49.324;8.694;2023-03-16T04:23:34;100141.72;;;0.69;91.53
38716;BME280;24833;49.324;8.694;2023-03-16T04:26:02;100137.53;;;0.66;91.83
38716;BME280;24833;49.324;8.694;2023-03-16T04:28:31;100132.28;;;0.66;91.59
38716;BME280;24833;49.324;8.694;2023-03-16T04:31:07;100140.28;;;0.65;91.64
38716;BME280;24833;49.324;8.694;2023-03-16T04:33:39;100139.56;;;0.63;91.50
38716;BME280;24833;49.324;8.694;2023-03-16T04:36:08;100137.09;;;0.61;91.42
38716;BME280;24833;49.324;8.694;2023-03-16T04:38:37;100148.53;;;0.60;91.73
38716;BME280;24833;49.324;8.694;2023-03-16T04:41:05;100137.19;;;0.60;91.64
38716;BME280;24833;49.324;8.694;2023-03-16T04:43:36;100154.75;;;0.59;91.76
38716;BME280;24833;49.324;8.694;2023-03-16T04:46:10;100145.19;;;0.58;91.81
38716;BME280;24833;49.324;8.694;2023-03-16T04:48:38;100140.06;;;0.57;91.88
38716;BME280;24833;49.324;8.694;2023-03-16T04:51:05;100139.38;;;0.54;92.19
38716;BME280;24833;49.324;8.694;2023-03-16T04:53:37;100126.22;;;0.54;92.25
38716;BME280;24833;49.324;8.694;2023-03-16T04:56:12;100135.91;;;0.54;91.89
38716;BME280;24833;49.324;8.694;2023-03-16T04:58:49;100134.09;;;0.54;92.25
38716;BME280;24833;49.324;8.694;2023-03-16T05:01:18;100131.59;;;0.53;92.59
38716;BME280;24833;49.324;8.694;2023-03-16T05:03:46;100122.03;;;0.52;92.00
38716;BME280;24833;49.324;8.694;2023-03-16T05:06:13;100130.88;;;0.51;92.54
38716;BME280;24833;49.324;8.694;2023-03-16T05:08:41;100126.59;;;0.50;92.76
38716;BME280;24833;49.324;8.694;2023-03-16T05:11:08;100112.75;;;0.48;92.23
38716;BME280;24833;49.324;8.694;2023-03-16T05:13:44;100125.06;;;0.47;92.29
38716;BME280;24833;49.324;8.694;2023-03-16T05:16:11;100115.47;;;0.46;92.65
38716;BME280;24833;49.324;8.694;2023-03-16T05:18:40;100123.34;;;0.46;92.50
38716;BME280;24833;49.324;8.694;2023-03-16T05:21:07;100118.84;;;0.48;92.50
38716;BME280;24833;49.324;8.694;2023-03-16T05:23:47;100115.25;;;0.49;92.81
38716;BME280;24833;49.324;8.694;2023-03-16T05:26:14;100116.91;;;0.50;92.62
38716;BME280;24833;49.324;8.694;2023-03-16T05:28:43;100115.13;;;0.51;92.92
38716;BME280;24833;49.324;8.694;2023-03-16T05:31:13;100117.63;;;0.52;92.75
38716;BME280;24833;49.324;8.694;2023-03-16T05:33:46;100101.75;;;0.54;92.82
38716;BME280;24833;49.324;8.694;2023-03-16T05:36:17;100114.88;;;0.54;92.81
38716;BME280;24833;49.324;8.694;2023-03-16T05:38:47;100116.56;;;0.55;93.10
38716;BME280;24833;49.324;8.694;2023-03-16T05:41:26;100112.97;;;0.56;92.83
38716;BME280;24833;49.324;8.694;2023-03-16T05:44:16;100115.59;;;0.56;92.80
38716;BME280;24833;49.324;8.694;2023-03-16T05:47:07;100113.78;;;0.57;92.76
38716;BME280;24833;49.324;8.694;2023-03-16T05:49:39;100113.66;;;0.58;93.08
38716;BME280;24833;49.324;8.694;2023-03-16T05:52:11;100111.88;;;0.59;93.07
38716;BME280;24833;49.324;8.694;2023-03-16T05:54:39;100107.34;;;0.61;93.22
38716;BME280;24833;49.324;8.694;2023-03-16T05:57:08;100103.63;;;0.63;93.27
38716;BME280;24833;49.324;8.694;2023-03-16T05:59:36;100093.81;;;0.65;93.04
38716;BME280;24833;49.324;8.694;2023-03-16T06:02:04;100094.56;;;0.67;93.20
38716;BME280;24833;49.324;8.694;2023-03-16T06:04:31;100093.59;;;0.68;92.90
38716;BME280;24833;49.324;8.694;2023-03-16T06:06:59;100083.09;;;0.68;92.79
38716;BME280;24833;49.324;8.694;2023-03-16T06:09:28;100108.53;;;0.68;92.98
38716;BME280;24833;49.324;8.694;2023-03-16T06:11:55;100092.03;;;0.66;93.00
38716;BME280;24833;49.324;8.694;2023-03-16T06:14:22;100080.44;;;0.68;92.81
38716;BME280;24833;49.324;8.694;2023-03-16T06:16:52;100077.81;;;0.68;92.64
38716;BME280;24833;49.324;8.694;2023-03-16T06:19:21;100087.25;;;0.71;92.83
38716;BME280;24833;49.324;8.694;2023-03-16T06:21:53;100083.78;;;0.70;92.87
38716;BME280;24833;49.324;8.694;2023-03-16T06:24:20;100084.47;;;0.72;92.91
38716;BME280;24833;49.324;8.694;2023-03-16T06:26:47;100084.47;;;0.72;92.94
38716;BME280;24833;49.324;8.694;2023-03-16T06:29:15;100098.34;;;0.74;92.91
38716;BME280;24833;49.324;8.694;2023-03-16T06:31:43;100091.03;;;0.78;93.11
38716;BME280;24833;49.324;8.694;2023-03-16T06:34:11;100080.41;;;0.79;93.12
38716;BME280;24833;49.324;8.694;2023-03-16T06:36:38;100091.63;;;0.81;93.04
38716;BME280;24833;49.324;8.694;2023-03-16T06:39:10;100096.75;;;0.83;93.17
38716;BME280;24833;49.324;8.694;2023-03-16T06:41:40;100103.53;;;0.86;93.12
38716;BME280;24833;49.324;8.694;2023-03-16T06:44:10;100093.75;;;0.88;93.21
38716;BME280;24833;49.324;8.694;2023-03-16T06:46:42;100087.53;;;0.89;92.87
38716;BME280;24833;49.324;8.694;2023-03-16T06:49:10;100096.81;;;0.93;92.96
38716;BME280;24833;49.324;8.694;2023-03-16T06:51:37;100094.94;;;0.95;92.86
38716;BME280;24833;49.324;8.694;2023-03-16T06:54:04;100098.00;;;1.00;93.13
38716;BME280;24833;49.324;8.694;2023-03-16T06:56:35;100094.16;;;1.04;93.18
38716;BME280;24833;49.324;8.694;2023-03-16T06:59:03;100102.75;;;1.06;93.01
38716;BME280;24833;49.324;8.694;2023-03-16T07:01:30;100099.16;;;1.07;93.15
38716;BME280;24833;49.324;8.694;2023-03-16T07:03:58;100103.34;;;1.09;93.18
38716;BME280;24833;49.324;8.694;2023-03-16T07:06:29;100109.16;;;1.13;93.06
38716;BME280;24833;49.324;8.694;2023-03-16T07:08:57;100109.75;;;1.17;93.25
38716;BME280;24833;49.324;8.694;2023-03-16T07:11:24;100111.28;;;1.19;93.28
38716;BME280;24833;49.324;8.694;2023-03-16T07:13:51;100113.69;;;1.22;93.43
38716;BME280;24833;49.324;8.694;2023-03-16T07:16:20;100111.50;;;1.27;93.48
38716;BME280;24833;49.324;8.694;2023-03-16T07:18:48;100113.59;;;1.33;93.35
38716;BME280;24833;49.324;8.694;2023-03-16T07:21:18;100116.97;;;1.35;93.17
38716;BME280;24833;49.324;8.694;2023-03-16T07:23:46;100121.81;;;1.40;93.45
38716;BME280;24833;49.324;8.694;2023-03-16T07:26:17;100110.78;;;1.46;93.30
38716;BME280;24833;49.324;8.694;2023-03-16T07:28:52;100122.59;;;1.52;93.21
38716;BME280;24833;49.324;8.694;2023-03-16T07:31:22;100119.72;;;1.55;93.58
38716;BME280;24833;49.324;8.694;2023-03-16T07:33:49;100114.88;;;1.60;93.12
38716;BME280;24833;49.324;8.694;2023-03-16T07:36:25;100123.91;;;1.67;93.29
38716;BME280;24833;49.324;8.694;2023-03-16T07:38:56;100124.50;;;1.71;92.96
38716;BME280;24833;49.324;8.694;2023-03-16T07:41:24;100113.31;;;1.78;93.01
38716;BME280;24833;49.324;8.694;2023-03-16T07:43:51;100119.03;;;1.83;93.16
38716;BME280;24833;49.324;8.694;2023-03-16T07:46:23;100121.16;;;1.89;93.15
38716;BME280;24833;49.324;8.694;2023-03-16T07:48:51;100122.16;;;1.98;93.16
38716;BME280;24833;49.324;8.694;2023-03-16T07:51:19;100122.59;;;2.03;93.15
38716;BME280;24833;49.324;8.694;2023-03-16T07:53:48;100130.81;;;2.10;93.42
38716;BME280;24833;49.324;8.694;2023-03-16T07:56:20;100129.03;;;2.20;93.14
38716;BME280;24833;49.324;8.694;2023-03-16T07:58:51;100120.06;;;2.32;92.73
38716;BME280;24833;49.324;8.694;2023-03-16T08:01:18;100134.25;;;2.41;92.49
38716;BME280;24833;49.324;8.694;2023-03-16T08:03:47;100118.47;;;2.51;92.38
38716;BME280;24833;49.324;8.694;2023-03-16T08:06:14;100115.28;;;2.57;92.51
38716;BME280;24833;49.324;8.694;2023-03-16T08:08:41;100114.59;;;2.64;92.50
38716;BME280;24833;49.324;8.694;2023-03-16T08:11:14;100112.09;;;2.72;92.07
38716;BME280;24833;49.324;8.694;2023-03-16T08:13:49;100106.03;;;2.82;92.50
38716;BME280;24833;49.324;8.694;2023-03-16T08:16:21;100097.28;;;2.91;92.22
38716;BME280;24833;49.324;8.694;2023-03-16T08:18:49;100093.81;;;3.00;91.56
38716;BME280;24833;49.324;8.694;2023-03-16T08:21:18;100091.72;;;3.04;92.54
38716;BME280;24833;49.324;8.694;2023-03-16T08:23:45;100100.47;;;3.14;92.54
38716;BME280;24833;49.324;8.694;2023-03-16T08:26:19;100097.69;;;3.25;92.76
38716;BME280;24833;49.324;8.694;2023-03-16T08:28:50;100106.69;;;3.32;92.70
38716;BME280;24833;49.324;8.694;2023-03-16T08:31:19;100093.38;;;3.43;92.87
38716;BME280;24833;49.324;8.694;2023-03-16T08:34:00;100089.84;;;3.52;92.88
38716;BME280;24833;49.324;8.694;2023-03-16T08:36:29;100090.38;;;3.66;92.11
38716;BME280;24833;49.324;8.694;2023-03-16T08:38:57;100095.66;;;3.75;91.99
38716;BME280;24833;49.324;8.694;2023-03-16T08:41:38;100090.63;;;3.82;92.68
38716;BME280;24833;49.324;8.694;2023-03-16T08:44:12;100095.19;;;3.90;92.83
38716;BME280;24833;49.324;8.694;2023-03-16T08:46:39;100089.84;;;3.99;92.45
38716;BME280;24833;49.324;8.694;2023-03-16T08:49:06;100089.69;;;4.10;91.90
38716;BME280;24833;49.324;8.694;2023-03-16T08:51:33;100081.84;;;4.19;91.82
38716;BME280;24833;49.324;8.694;2023-03-16T08:54:00;100080.13;;;4.27;91.94
38716;BME280;24833;49.324;8.694;2023-03-16T08:56:27;100090.34;;;4.40;91.62
38716;BME280;24833;49.324;8.694;2023-03-16T08:58:56;100078.91;;;4.49;91.71
38716;BME280;24833;49.324;8.694;2023-03-16T09:01:23;100085.25;;;4.56;91.70
38716;BME280;24833;49.324;8.694;2023-03-16T09:03:51;100078.47;;;4.72;91.22
38716;BME280;24833;49.324;8.694;2023-03-16T09:06:18;100091.75;;;4.80;92.15
38716;BME280;24833;49.324;8.694;2023-03-16T09:08:45;100077.66;;;4.89;92.47
38716;BME280;24833;49.324;8.694;2023-03-16T09:11:18;100074.41;;;4.95;91.24
38716;BME280;24833;49.324;8.694;2023-03-16T09:13:45;100073.47;;;5.04;92.22
38716;BME280;24833;49.324;8.694;2023-03-16T09:16:14;100073.25;;;5.15;92.00
38716;BME280;24833;49.324;8.694;2023-03-16T09:18:42;100074.81;;;5.26;92.12
38716;BME280;24833;49.324;8.694;2023-03-16T09:21:11;100085.00;;;5.39;91.72
38716;BME280;24833;49.324;8.694;2023-03-16T09:23:41;100077.47;;;5.52;92.61
38716;BME280;24833;49.324;8.694;2023-03-16T09:26:10;100079.88;;;5.63;90.54
38716;BME280;24833;49.324;8.694;2023-03-16T09:28:39;100079.47;;;5.76;89.53
38716;BME280;24833;49.324;8.694;2023-03-16T09:31:12;100077.69;;;5.85;89.60
38716;BME280;24833;49.324;8.694;2023-03-16T09:33:41;100081.22;;;5.93;89.49
38716;BME280;24833;49.324;8.694;2023-03-16T09:36:09;100076.81;;;6.02;89.90
38716;BME280;24833;49.324;8.694;2023-03-16T09:38:41;100079.31;;;6.12;89.51
38716;BME280;24833;49.324;8.694;2023-03-16T09:44:53;100090.50;;;6.32;89.72
38716;BME280;24833;49.324;8.694;2023-03-16T09:47:27;100080.44;;;6.43;91.27
38716;BME280;24833;49.324;8.694;2023-03-16T09:49:59;100075.16;;;6.51;91.84
38716;BME280;24833;49.324;8.694;2023-03-16T09:52:54;100077.84;;;6.68;90.48
38716;BME280;24833;49.324;8.694;2023-03-16T09:55:29;100072.06;;;6.72;89.13
38716;BME280;24833;49.324;8.694;2023-03-16T09:57:59;100063.44;;;6.78;89.11
38716;BME280;24833;49.324;8.694;2023-03-16T10:00:37;100065.09;;;6.79;86.94
38716;BME280;24833;49.324;8.694;2023-03-16T10:03:17;100072.41;;;6.86;88.41
38716;BME280;24833;49.324;8.694;2023-03-16T10:05:58;100053.47;;;6.89;87.90
38716;BME280;24833;49.324;8.694;2023-03-16T10:08:42;100050.81;;;6.89;88.04
38716;BME280;24833;49.324;8.694;2023-03-16T10:11:35;100036.91;;;6.87;87.80
38716;BME280;24833;49.324;8.694;2023-03-16T10:20:23;100049.19;;;7.04;86.29
38716;BME280;24833;49.324;8.694;2023-03-16T10:22:53;100038.91;;;7.01;85.25
38716;BME280;24833;49.324;8.694;2023-03-16T10:25:34;100038.59;;;7.04;84.93
38716;BME280;24833;49.324;8.694;2023-03-16T10:28:04;100035.91;;;7.12;86.67
38716;BME280;24833;49.324;8.694;2023-03-16T10:30:34;100039.38;;;7.21;86.32
38716;BME280;24833;49.324;8.694;2023-03-16T10:33:16;100039.22;;;7.30;86.66
38716;BME280;24833;49.324;8.694;2023-03-16T10:35:50;100039.22;;;7.38;85.54
38716;BME280;24833;49.324;8.694;2023-03-16T10:38:45;100045.88;;;7.43;85.51
38716;BME280;24833;49.324;8.694;2023-03-16T10:43:51;100053.78;;;7.59;87.82
38716;BME280;24833;49.324;8.694;2023-03-16T10:46:18;100037.31;;;7.72;87.58
38716;BME280;24833;49.324;8.694;2023-03-16T10:48:59;100038.91;;;7.89;84.85
38716;BME280;24833;49.324;8.694;2023-03-16T10:51:33;100035.41;;;7.97;86.04
38716;BME280;24833;49.324;8.694;2023-03-16T10:54:15;100047.50;;;8.07;87.17
38716;BME280;24833;49.324;8.694;2023-03-16T10:56:48;100036.47;;;8.18;87.17
38716;BME280;24833;49.324;8.694;2023-03-16T10:59:32;100028.59;;;8.33;85.77
38716;BME280;24833;49.324;8.694;2023-03-16T11:02:29;100031.22;;;8.41;86.71
38716;BME280;24833;49.324;8.694;2023-03-16T11:04:51;100031.19;;;8.50;85.49
38716;BME280;24833;49.324;8.694;2023-03-16T11:07:21;100024.00;;;8.58;85.80
38716;BME280;24833;49.324;8.694;2023-03-16T11:09:51;100021.09;;;8.68;85.41
38716;BME280;24833;49.324;8.694;2023-03-16T11:12:30;100017.81;;;8.81;87.64
38716;BME280;24833;49.324;8.694;2023-03-16T11:15:11;100016.78;;;8.90;86.80
38716;BME280;24833;49.324;8.694;2023-03-16T11:17:51;100004.22;;;8.98;86.62
38716;BME280;24833;49.324;8.694;2023-03-16T11:20:25;100009.38;;;9.15;85.61
38716;BME280;24833;49.324;8.694;2023-03-16T11:22:54;100012.25;;;9.28;88.08
38716;BME280;24833;49.324;8.694;2023-03-16T11:25:38;100003.19;;;9.37;85.58
38716;BME280;24833;49.324;8.694;2023-03-16T11:28:31;100005.78;;;9.45;83.07
38716;BME280;24833;49.324;8.694;2023-03-16T11:31:39;99996.56;;;9.63;84.33
38716;BME280;24833;49.324;8.694;2023-03-16T11:34:20;100000.53;;;9.67;84.15
38716;BME280;24833;49.324;8.694;2023-03-16T11:36:53;100001.16;;;9.69;82.34
38716;BME280;24833;49.324;8.694;2023-03-16T11:45:39;99986.09;;;9.76;83.62
38716;BME280;24833;49.324;8.694;2023-03-16T12:03:15;99967.59;;;10.04;80.51
38716;BME280;24833;49.324;8.694;2023-03-16T12:06:18;99967.28;;;10.14;82.96
38716;BME280;24833;49.324;8.694;2023-03-16T12:12:28;99968.56;;;10.32;84.27
38716;BME280;24833;49.324;8.694;2023-03-16T12:15:22;99966.72;;;10.33;81.22
38716;BME280;24833;49.324;8.694;2023-03-16T12:17:58;99956.50;;;10.36;81.91
38716;BME280;24833;49.324;8.694;2023-03-16T12:20:31;99955.28;;;10.39;83.59
38716;BME280;24833;49.324;8.694;2023-03-16T12:23:07;99943.50;;;10.55;86.27
38716;BME280;24833;49.324;8.694;2023-03-16T12:25:39;99950.19;;;10.66;83.28
38716;BME280;24833;49.324;8.694;2023-03-16T12:28:35;99935.94;;;10.80;80.69
38716;BME280;24833;49.324;8.694;2023-03-16T12:33:51;99931.16;;;11.03;83.22
38716;BME280;24833;49.324;8.694;2023-03-16T12:48:32;99919.59;;;11.59;79.47
38716;BME280;24833;49.324;8.694;2023-03-16T12:51:02;99923.53;;;11.69;81.75
38716;BME280;24833;49.324;8.694;2023-03-16T12:56:31;99915.03;;;11.94;83.34
38716;BME280;24833;49.324;8.694;2023-03-16T12:59:01;99904.13;;;11.95;82.02
38716;BME280;24833;49.324;8.694;2023-03-16T13:01:41;99905.63;;;12.11;81.25
38716;BME280;24833;49.324;8.694;2023-03-16T13:04:33;99899.84;;;12.14;82.07
38716;BME280;24833;49.324;8.694;2023-03-16T13:07:06;99906.25;;;12.13;81.31
38716;BME280;24833;49.324;8.694;2023-03-16T13:09:39;99893.06;;;12.05;79.45
38716;BME280;24833;49.324;8.694;2023-03-16T13:12:08;99883.19;;;12.12;80.41
38716;BME280;24833;49.324;8.694;2023-03-16T13:19:45;99883.22;;;12.32;78.87
38716;BME280;24833;49.324;8.694;2023-03-16T13:22:39;99885.28;;;12.50;82.04
38716;BME280;24833;49.324;8.694;2023-03-16T13:27:58;99877.44;;;12.68;85.97
38716;BME280;24833;49.324;8.694;2023-03-16T13:30:30;99873.69;;;13.09;82.99
38716;BME280;24833;49.324;8.694;2023-03-16T13:33:25;99874.53;;;13.23;83.88
38716;BME280;24833;49.324;8.694;2023-03-16T13:35:55;99879.69;;;13.18;79.40
38716;BME280;24833;49.324;8.694;2023-03-16T13:38:27;99872.63;;;13.36;82.16
38716;BME280;24833;49.324;8.694;2023-03-16T13:41:18;99879.41;;;13.46;79.87
38716;BME280;24833;49.324;8.694;2023-03-16T13:43:45;99870.31;;;13.53;80.45
38716;BME280;24833;49.324;8.694;2023-03-16T13:46:19;99873.38;;;13.57;80.48
38716;BME280;24833;49.324;8.694;2023-03-16T13:48:51;99864.41;;;13.76;82.40
38716;BME280;24833;49.324;8.694;2023-03-16T13:51:20;99854.47;;;13.83;83.26
38716;BME280;24833;49.324;8.694;2023-03-16T13:53:48;99850.38;;;13.81;79.16
38716;BME280;24833;49.324;8.694;2023-03-16T13:56:21;99842.78;;;14.03;80.64
38716;BME280;24833;49.324;8.694;2023-03-16T13:58:52;99834.66;;;14.16;79.80
38716;BME280;24833;49.324;8.694;2023-03-16T14:01:30;99817.25;;;14.25;81.15
38716;BME280;24833;49.324;8.694;2023-03-16T14:04:01;99823.19;;;14.02;74.42
38716;BME280;24833;49.324;8.694;2023-03-16T14:06:35;99811.88;;;13.94;74.55
38716;BME280;24833;49.324;8.694;2023-03-16T14:09:06;99824.34;;;13.81;74.40
38716;BME280;24833;49.324;8.694;2023-03-16T14:11:34;99814.09;;;13.72;76.06
38716;BME280;24833;49.324;8.694;2023-03-16T14:14:14;99809.63;;;13.52;74.12
38716;BME280;24833;49.324;8.694;2023-03-16T14:16:44;99813.00;;;13.34;72.33
38716;BME280;24833;49.324;8.694;2023-03-16T14:19:21;99809.28;;;13.35;75.88
38716;BME280;24833;49.324;8.694;2023-03-16T14:21:50;99813.88;;;13.22;74.23
38716;BME280;24833;49.324;8.694;2023-03-16T14:24:31;99817.78;;;13.19;74.77
38716;BME280;24833;49.324;8.694;2023-03-16T14:27:42;99797.44;;;12.98;68.43
38716;BME280;24833;49.324;8.694;2023-03-16T14:30:21;99795.16;;;12.95;74.74
38716;BME280;24833;49.324;8.694;2023-03-16T14:33:04;99799.97;;;12.73;70.63
38716;BME280;24833;49.324;8.694;2023-03-16T14:35:42;99803.66;;;12.79;75.73